METAR Data
IDs: Format: Raw Decoded Include TAF

Data at: 1214 UTC 17 Sep 2019

METAR for:PADK (Adak (NAS), AK, US)
Text:PADK 171156Z AUTO 27018G24KT 4SM BR SCT008 BKN015 OVC021 09/09 A2944 RMK AO2 RAB08E19 SLP968 P0000 60000 70009 T00940089 10094 20083 51004
Temperature: 9.4°C ( 49°F)
Dewpoint: 8.9°C ( 48°F) [RH = 97%]
Pressure (altimeter):29.44 inches Hg ( 997.0 mb) [Sea level pressure: 996.8 mb]
Winds:from the W (270 degrees) at 21 MPH (18 knots; 9.3 m/s) gusting to 28 MPH (24 knots; 12.3 m/s)
Visibility: 4 sm ( 6 km)
Ceiling:1500 feet AGL
Clouds: scattered clouds at 800 feet AGL, broken clouds at 1500 feet AGL, overcast cloud deck at 2100 feet AGL
Weather:BR (mist)
QC Flag:automated observation with no human augmentation
Text:PADK 171140Z AUTO 27015G21KT 3SM BR BKN006 OVC014 09/09 A2943 RMK AO2 RAB08E19 CIG 005V011 P0000
Temperature: 9.0°C ( 48°F)
Dewpoint: 9.0°C ( 48°F) [RH = 100%]
Pressure (altimeter):29.43 inches Hg ( 996.7 mb)
Winds:from the W (270 degrees) at 17 MPH (15 knots; 7.7 m/s) gusting to 24 MPH (21 knots; 10.8 m/s)
Visibility: 3 sm ( 5 km)
Ceiling:600 feet AGL
Clouds: broken clouds at 600 feet AGL, overcast cloud deck at 1400 feet AGL
Weather:BR (mist)
QC Flag:automated observation with no human augmentation
Text:PADK 171114Z AUTO 27011KT 2SM -RA BR OVC006 09/09 A2944 RMK AO2 RAB08 P0000
Temperature: 9.0°C ( 48°F)
Dewpoint: 9.0°C ( 48°F) [RH = 100%]
Pressure (altimeter):29.44 inches Hg ( 997.0 mb)
Winds:from the W (270 degrees) at 13 MPH (11 knots; 5.7 m/s)
Visibility: 2.00 sm ( 3.22 km)
Ceiling:600 feet AGL
Clouds: overcast cloud deck at 600 feet AGL
Weather:-RA BR (light rain, mist)
QC Flag:automated observation with no human augmentation
Text:PADK 171056Z AUTO 27004KT 10SM OVC006 09/08 A2943 RMK AO2 CIG 005V011 SLP967 T00890083
Temperature: 8.9°C ( 48°F)
Dewpoint: 8.3°C ( 47°F) [RH = 96%]
Pressure (altimeter):29.43 inches Hg ( 996.7 mb) [Sea level pressure: 996.7 mb]
Winds:from the W (270 degrees) at 5 MPH (4 knots; 2.1 m/s)
Visibility:10 or more sm (16+ km)
Ceiling:600 feet AGL
Clouds: overcast cloud deck at 600 feet AGL
QC Flag:automated observation with no human augmentation
Text:PADK 171038Z AUTO 25009KT 10SM BKN006 OVC010 08/08 A2944 RMK AO2 CIG 003V009
Temperature: 8.0°C ( 46°F)
Dewpoint: 8.0°C ( 46°F) [RH = 100%]
Pressure (altimeter):29.44 inches Hg ( 997.0 mb)
Winds:from the WSW (250 degrees) at 10 MPH (9 knots; 4.6 m/s)
Visibility:10 or more sm (16+ km)
Ceiling:600 feet AGL
Clouds: broken clouds at 600 feet AGL, overcast cloud deck at 1000 feet AGL
QC Flag:automated observation with no human augmentation
Text:PADK 171026Z AUTO 26007KT 10SM OVC004 08/08 A2944 RMK AO2 CIG 003V008
Temperature: 8.0°C ( 46°F)
Dewpoint: 8.0°C ( 46°F) [RH = 100%]
Pressure (altimeter):29.44 inches Hg ( 997.0 mb)
Winds:from the W (260 degrees) at 8 MPH (7 knots; 3.6 m/s)
Visibility:10 or more sm (16+ km)
Ceiling:400 feet AGL
Clouds: overcast cloud deck at 400 feet AGL
QC Flag:automated observation with no human augmentation
Text:PADK 170959Z AUTO 24009KT 3SM BR OVC002 08/08 A2944 RMK AO2
Temperature: 8.0°C ( 46°F)
Dewpoint: 8.0°C ( 46°F) [RH = 100%]
Pressure (altimeter):29.44 inches Hg ( 997.0 mb)
Winds:from the WSW (240 degrees) at 10 MPH (9 knots; 4.6 m/s)
Visibility: 3 sm ( 5 km)
Ceiling:200 feet AGL
Clouds: overcast cloud deck at 200 feet AGL
Weather:BR (mist)
QC Flag:automated observation with no human augmentation
Text:PADK 170956Z AUTO 25008KT 1 3/4SM BR OVC002 08/08 A2944 RMK AO2 SLP969 T00830083 401330083
Temperature: 8.3°C ( 47°F)
Dewpoint: 8.3°C ( 47°F) [RH = 100%]
Pressure (altimeter):29.44 inches Hg ( 997.0 mb) [Sea level pressure: 996.9 mb]
Winds:from the WSW (250 degrees) at 9 MPH (8 knots; 4.1 m/s)
Visibility: 1.75 sm ( 2.82 km)
Ceiling:200 feet AGL
Clouds: overcast cloud deck at 200 feet AGL
Weather:BR (mist)
QC Flag:automated observation with no human augmentation
Text:PADK 170948Z AUTO 25010KT 1 1/4SM BR OVC002 08/08 A2944 RMK AO2
Temperature: 8.0°C ( 46°F)
Dewpoint: 8.0°C ( 46°F) [RH = 100%]
Pressure (altimeter):29.44 inches Hg ( 997.0 mb)
Winds:from the WSW (250 degrees) at 12 MPH (10 knots; 5.1 m/s)
Visibility: 1.25 sm ( 2.01 km)
Ceiling:200 feet AGL
Clouds: overcast cloud deck at 200 feet AGL
Weather:BR (mist)
QC Flag:automated observation with no human augmentation
Text:PADK 170941Z AUTO 25011KT 3/4SM BR OVC002 08/08 A2944 RMK AO2
Temperature: 8.0°C ( 46°F)
Dewpoint: 8.0°C ( 46°F) [RH = 100%]
Pressure (altimeter):29.44 inches Hg ( 997.0 mb)
Winds:from the WSW (250 degrees) at 13 MPH (11 knots; 5.7 m/s)
Visibility: 0.75 sm ( 1.21 km)
Ceiling:200 feet AGL
Clouds: overcast cloud deck at 200 feet AGL
Weather:BR (mist)
QC Flag:automated observation with no human augmentation
Text:PADK 170932Z AUTO 24013KT 1/2SM FG OVC002 08/08 A2943 RMK AO2
Temperature: 8.0°C ( 46°F)
Dewpoint: 8.0°C ( 46°F) [RH = 100%]
Pressure (altimeter):29.43 inches Hg ( 996.7 mb)
Winds:from the WSW (240 degrees) at 15 MPH (13 knots; 6.7 m/s)
Visibility: 0.50 sm ( 0.80 km)
Ceiling:200 feet AGL
Clouds: overcast cloud deck at 200 feet AGL
Weather:FG (fog)
QC Flag:automated observation with no human augmentation
Text:PADK 170919Z AUTO 25010KT 3/4SM BR OVC002 08/08 A2943 RMK AO2
Temperature: 8.0°C ( 46°F)
Dewpoint: 8.0°C ( 46°F) [RH = 100%]
Pressure (altimeter):29.43 inches Hg ( 996.7 mb)
Winds:from the WSW (250 degrees) at 12 MPH (10 knots; 5.1 m/s)
Visibility: 0.75 sm ( 1.21 km)
Ceiling:200 feet AGL
Clouds: overcast cloud deck at 200 feet AGL
Weather:BR (mist)
QC Flag:automated observation with no human augmentation
Text:PADK 170911Z AUTO 24010KT 1 1/4SM BR OVC002 08/08 A2943 RMK AO2
Temperature: 8.0°C ( 46°F)
Dewpoint: 8.0°C ( 46°F) [RH = 100%]
Pressure (altimeter):29.43 inches Hg ( 996.7 mb)
Winds:from the WSW (240 degrees) at 12 MPH (10 knots; 5.1 m/s)
Visibility: 1.25 sm ( 2.01 km)
Ceiling:200 feet AGL
Clouds: overcast cloud deck at 200 feet AGL
Weather:BR (mist)
QC Flag:automated observation with no human augmentation
Text:PADK 170904Z AUTO 24009KT 2SM BR OVC002 08/08 A2943 RMK AO2
Temperature: 8.0°C ( 46°F)
Dewpoint: 8.0°C ( 46°F) [RH = 100%]
Pressure (altimeter):29.43 inches Hg ( 996.7 mb)
Winds:from the WSW (240 degrees) at 10 MPH (9 knots; 4.6 m/s)
Visibility: 2.00 sm ( 3.22 km)
Ceiling:200 feet AGL
Clouds: overcast cloud deck at 200 feet AGL
Weather:BR (mist)
QC Flag:automated observation with no human augmentation
Text:PADK 170856Z AUTO 25010KT 1 3/4SM BR OVC002 08/08 A2943 RMK AO2 SLP964 T00830083 51001
Temperature: 8.3°C ( 47°F)
Dewpoint: 8.3°C ( 47°F) [RH = 100%]
Pressure (altimeter):29.43 inches Hg ( 996.7 mb) [Sea level pressure: 996.4 mb]
Winds:from the WSW (250 degrees) at 12 MPH (10 knots; 5.1 m/s)
Visibility: 1.75 sm ( 2.82 km)
Ceiling:200 feet AGL
Clouds: overcast cloud deck at 200 feet AGL
Weather:BR (mist)
QC Flag:automated observation with no human augmentation
Text:PADK 170845Z AUTO 25010KT 1SM BR OVC002 08/08 A2942 RMK AO2
Temperature: 8.0°C ( 46°F)
Dewpoint: 8.0°C ( 46°F) [RH = 100%]
Pressure (altimeter):29.42 inches Hg ( 996.4 mb)
Winds:from the WSW (250 degrees) at 12 MPH (10 knots; 5.1 m/s)
Visibility: 1.00 sm ( 1.61 km)
Ceiling:200 feet AGL
Clouds: overcast cloud deck at 200 feet AGL
Weather:BR (mist)
QC Flag:automated observation with no human augmentation
Text:PADK 170830Z AUTO 25009KT 1 1/2SM BR OVC002 08/08 A2942 RMK AO2 CIG 002V005
Temperature: 8.0°C ( 46°F)
Dewpoint: 8.0°C ( 46°F) [RH = 100%]
Pressure (altimeter):29.42 inches Hg ( 996.4 mb)
Winds:from the WSW (250 degrees) at 10 MPH (9 knots; 4.6 m/s)
Visibility: 1.50 sm ( 2.41 km)
Ceiling:200 feet AGL
Clouds: overcast cloud deck at 200 feet AGL
Weather:BR (mist)
QC Flag:automated observation with no human augmentation
Text:PADK 170823Z AUTO 27009KT 2 1/2SM BR OVC004 09/08 A2942 RMK AO2 CIG 002V006
Temperature: 9.0°C ( 48°F)
Dewpoint: 8.0°C ( 46°F) [RH = 93%]
Pressure (altimeter):29.42 inches Hg ( 996.4 mb)
Winds:from the W (270 degrees) at 10 MPH (9 knots; 4.6 m/s)
Visibility: 2.50 sm ( 4.02 km)
Ceiling:400 feet AGL
Clouds: overcast cloud deck at 400 feet AGL
Weather:BR (mist)
QC Flag:automated observation with no human augmentation
Text:PADK 170756Z AUTO 26009KT 10SM OVC006 09/08 A2943 RMK AO2 SLP964 T00890083
Temperature: 8.9°C ( 48°F)
Dewpoint: 8.3°C ( 47°F) [RH = 96%]
Pressure (altimeter):29.43 inches Hg ( 996.7 mb) [Sea level pressure: 996.4 mb]
Winds:from the W (260 degrees) at 10 MPH (9 knots; 4.6 m/s)
Visibility:10 or more sm (16+ km)
Ceiling:600 feet AGL
Clouds: overcast cloud deck at 600 feet AGL
QC Flag:automated observation with no human augmentation
Text:PADK 170656Z AUTO 26006KT 10SM OVC008 09/08 A2943 RMK AO2 SLP965 T00890078
Temperature: 8.9°C ( 48°F)
Dewpoint: 7.8°C ( 46°F) [RH = 93%]
Pressure (altimeter):29.43 inches Hg ( 996.7 mb) [Sea level pressure: 996.5 mb]
Winds:from the W (260 degrees) at 7 MPH (6 knots; 3.1 m/s)
Visibility:10 or more sm (16+ km)
Ceiling:800 feet AGL
Clouds: overcast cloud deck at 800 feet AGL
QC Flag:automated observation with no human augmentation
Text:PADK 170646Z AUTO 25007KT 10SM BKN008 OVC014 09/08 A2943 RMK AO2
Temperature: 9.0°C ( 48°F)
Dewpoint: 8.0°C ( 46°F) [RH = 93%]
Pressure (altimeter):29.43 inches Hg ( 996.7 mb)
Winds:from the WSW (250 degrees) at 8 MPH (7 knots; 3.6 m/s)
Visibility:10 or more sm (16+ km)
Ceiling:800 feet AGL
Clouds: broken clouds at 800 feet AGL, overcast cloud deck at 1400 feet AGL
QC Flag:automated observation with no human augmentation
Text:PADK 170616Z AUTO 23010KT 10SM FEW008 OVC014 09/08 A2943 RMK AO2
Temperature: 9.0°C ( 48°F)
Dewpoint: 8.0°C ( 46°F) [RH = 93%]
Pressure (altimeter):29.43 inches Hg ( 996.7 mb)
Winds:from the SW (230 degrees) at 12 MPH (10 knots; 5.1 m/s)
Visibility:10 or more sm (16+ km)
Ceiling:1400 feet AGL
Clouds: few clouds at 800 feet AGL, overcast cloud deck at 1400 feet AGL
QC Flag:automated observation with no human augmentation

TAF for:PADK (Adak (NAS), AK, US)
Text:No data found